Heat Index SAI AWOS Graphical Display Untitled Document
Ulysses Airport (ULS) Grant County, Kansas
340
11:22
18/07/23
08
N/A
N/A
30.14
N/A
3067
65(F), 18(C)
63(F), 17(C)
65 F
94%
CLR
10
N/A
N/A
N/A
11:22 zulu Wind 340 at 08 Knots, Altimeter 30.14
METAR KULS 231122Z AUTO 34008KT 10SM CLR 18/17 A3014 A02
METAR:
FAA Disclaimer--Advisory Use ONLY, not for flight info-- 6/29/2009: FBO 620-356-4528 FUEL- 100LL $3.79self-serve or $3.90 for full service, Jet A $3.21 full service. AWOS 118.95mhz, 620-424-3747. Pilots with cellphones (smartphones) can now view awos at http://www.saiawos3.com/ULS
INFO:
Wind Direction:
Wind Speed:
Wind Gust:
Wind Variable:
Altimeter:
Dens Alt:
Elev:
Temp:
Dwpt:
Wind Chill
Rel Humidity:
Ceiling:
Visibility:
Prsnt Wea:
PCPN:
Remarks:
How to read the WebPage